FJL700 OPIS-OEJN
Flight info
| Callsign | FJL700 |
|---|---|
| Flight time | 5h 18m |
| Altitude | 34000 |
| Route | DAMTO2F DAMTO Z304 ZB G325 PG T385 TAPDO A454 VUSET T500 MCT T506 TULBU G652 TOKRA Y511 ASMUN G782 VEMEM VEMEM2N |
| Aircraft | A320/M-SDE3FGHIRWY/LB1 |
Departure
| Time | 2026-04-30 14:07 |
|---|---|
| Airport | Islamabad International Airport (OPIS) |
Arrival
| Time | 2026-04-30 19:25 |
|---|---|
| Airport | King Abdulaziz International Airport (OEJN) |
| Time | Latitude | Longitude | Altitude | Speed | Heading |
|---|---|---|---|---|---|
| 2026-04-30 13:53 | 33.55666 | 72.83181 | 1770 ft | 0 kts | 100° |
| 2026-04-30 14:02 | 33.55665 | 72.83184 | 1770 ft | 1 kts | 104° |
| 2026-04-30 14:02 | 33.55664 | 72.83184 | 1770 ft | 0 kts | 114° |
| 2026-04-30 14:02 | 33.55649 | 72.83193 | 1770 ft | 1 kts | 168° |
| 2026-04-30 14:02 | 33.55645 | 72.83190 | 1770 ft | 5 kts | 196° |
| 2026-04-30 14:03 | 33.55618 | 72.83154 | 1770 ft | 1 kts | 267° |
| 2026-04-30 14:03 | 33.55625 | 72.83120 | 1770 ft | 13 kts | 285° |
| 2026-04-30 14:03 | 33.55723 | 72.83058 | 1770 ft | 17 kts | 7° |
| 2026-04-30 14:03 | 33.55804 | 72.83068 | 1772 ft | 3 kts | 321° |
| 2026-04-30 14:04 | 33.55805 | 72.83046 | 1771 ft | 7 kts | 276° |
| 2026-04-30 14:04 | 33.55823 | 72.82909 | 1770 ft | 26 kts | 279° |
| 2026-04-30 14:04 | 33.55825 | 72.82727 | 1771 ft | 6 kts | 234° |
| 2026-04-30 14:04 | 33.55816 | 72.82723 | 1770 ft | 0 kts | 191° |
| 2026-04-30 14:05 | 33.55693 | 72.82699 | 1770 ft | 44 kts | 189° |
| 2026-04-30 14:05 | 33.55320 | 72.82615 | 1771 ft | 54 kts | 190° |
| 2026-04-30 14:05 | 33.55089 | 72.82471 | 1762 ft | 32 kts | 217° |
| 2026-04-30 14:05 | 33.54974 | 72.82452 | 1758 ft | 4 kts | 126° |
| 2026-04-30 14:06 | 33.54977 | 72.82500 | 1753 ft | 20 kts | 87° |
| 2026-04-30 14:06 | 33.54784 | 72.83971 | 1764 ft | 148 kts | 101° |
| 2026-04-30 14:07 | 33.54479 | 72.86671 | 2718 ft | 179 kts | 96° |
| 2026-04-30 14:07 | 33.54312 | 72.88222 | 3012 ft | 197 kts | 99° |
| 2026-04-30 14:07 | 33.54096 | 72.89933 | 3138 ft | 218 kts | 99° |
| 2026-04-30 14:08 | 33.52277 | 72.92980 | 3575 ft | 261 kts | 162° |
| 2026-04-30 14:08 | 33.50440 | 72.93020 | 4074 ft | 273 kts | 193° |
| 2026-04-30 14:08 | 33.46866 | 72.91270 | 5419 ft | 281 kts | 205° |
| 2026-04-30 14:09 | 33.45083 | 72.90278 | 6105 ft | 284 kts | 205° |
| 2026-04-30 14:09 | 33.43278 | 72.89278 | 6755 ft | 288 kts | 204° |
| 2026-04-30 14:09 | 33.39411 | 72.87809 | 8103 ft | 294 kts | 195° |
| 2026-04-30 14:10 | 33.37405 | 72.87228 | 8788 ft | 297 kts | 196° |
| 2026-04-30 14:10 | 33.35532 | 72.86212 | 9424 ft | 297 kts | 220° |
| 2026-04-30 14:10 | 33.34183 | 72.84364 | 10021 ft | 296 kts | 240° |
| 2026-04-30 14:10 | 33.33079 | 72.82247 | 10274 ft | 314 kts | 240° |
| 2026-04-30 14:11 | 33.31901 | 72.79934 | 10392 ft | 335 kts | 240° |
| 2026-04-30 14:11 | 33.30661 | 72.77491 | 10661 ft | 349 kts | 240° |
| 2026-04-30 14:11 | 33.29384 | 72.74988 | 11183 ft | 354 kts | 240° |
| 2026-04-30 14:11 | 33.28095 | 72.72473 | 11765 ft | 357 kts | 240° |
| 2026-04-30 14:12 | 33.26789 | 72.69936 | 12339 ft | 359 kts | 240° |
| 2026-04-30 14:12 | 33.25470 | 72.67379 | 12931 ft | 362 kts | 240° |
| 2026-04-30 14:12 | 33.24143 | 72.64808 | 13505 ft | 365 kts | 240° |
| 2026-04-30 14:12 | 33.22810 | 72.62226 | 14042 ft | 366 kts | 240° |
| 2026-04-30 14:13 | 33.21483 | 72.59659 | 14570 ft | 368 kts | 241° |
| 2026-04-30 14:13 | 33.20133 | 72.57048 | 15104 ft | 370 kts | 241° |
| 2026-04-30 14:13 | 33.18778 | 72.54427 | 15617 ft | 372 kts | 241° |
| 2026-04-30 14:13 | 33.17410 | 72.51787 | 16125 ft | 375 kts | 241° |
| 2026-04-30 14:14 | 33.16027 | 72.49123 | 16616 ft | 377 kts | 241° |
| 2026-04-30 14:14 | 33.14640 | 72.46453 | 17116 ft | 380 kts | 241° |
| 2026-04-30 14:14 | 33.13241 | 72.43761 | 17614 ft | 382 kts | 241° |
| 2026-04-30 14:14 | 33.11854 | 72.41093 | 18079 ft | 385 kts | 241° |
| 2026-04-30 14:15 | 33.10436 | 72.38365 | 18491 ft | 387 kts | 241° |
| 2026-04-30 14:15 | 33.09009 | 72.35616 | 18917 ft | 389 kts | 240° |
| 2026-04-30 14:15 | 33.07579 | 72.32866 | 19336 ft | 391 kts | 240° |
| 2026-04-30 14:15 | 33.06140 | 72.30104 | 19741 ft | 393 kts | 240° |
| 2026-04-30 14:16 | 33.04689 | 72.27320 | 20155 ft | 396 kts | 240° |
| 2026-04-30 14:16 | 33.03248 | 72.24556 | 20554 ft | 398 kts | 240° |
| 2026-04-30 14:16 | 33.01783 | 72.21751 | 20964 ft | 400 kts | 240° |
| 2026-04-30 14:16 | 33.00306 | 72.18923 | 21365 ft | 402 kts | 240° |
| 2026-04-30 14:17 | 32.98824 | 72.16087 | 21752 ft | 404 kts | 240° |
| 2026-04-30 14:17 | 32.97330 | 72.13233 | 22141 ft | 406 kts | 240° |
| 2026-04-30 14:17 | 32.95824 | 72.10361 | 22517 ft | 409 kts | 240° |
| 2026-04-30 14:17 | 32.94309 | 72.07480 | 22891 ft | 411 kts | 240° |
| 2026-04-30 14:18 | 32.92805 | 72.04624 | 23265 ft | 413 kts | 240° |
| 2026-04-30 14:18 | 32.91270 | 72.01708 | 23578 ft | 415 kts | 240° |
| 2026-04-30 14:18 | 32.88116 | 71.95908 | 24172 ft | 420 kts | 238° |
| 2026-04-30 14:19 | 32.84719 | 71.90214 | 24753 ft | 423 kts | 238° |
| 2026-04-30 14:19 | 32.82985 | 71.87373 | 25101 ft | 423 kts | 238° |
| 2026-04-30 14:19 | 32.81257 | 71.84528 | 25405 ft | 424 kts | 238° |
| 2026-04-30 14:20 | 32.79533 | 71.81668 | 25686 ft | 426 kts | 238° |
| 2026-04-30 14:20 | 32.77835 | 71.78827 | 25962 ft | 427 kts | 239° |
| 2026-04-30 14:20 | 32.74391 | 71.73036 | 26490 ft | 430 kts | 239° |
| 2026-04-30 14:21 | 32.72660 | 71.70120 | 26741 ft | 432 kts | 239° |
| 2026-04-30 14:21 | 32.70918 | 71.67191 | 26994 ft | 434 kts | 239° |
| 2026-04-30 14:21 | 32.67406 | 71.61317 | 27502 ft | 437 kts | 239° |
| 2026-04-30 14:22 | 32.65639 | 71.58372 | 27755 ft | 438 kts | 239° |
| 2026-04-30 14:22 | 32.62111 | 71.52483 | 28203 ft | 442 kts | 240° |
| 2026-04-30 14:22 | 32.60322 | 71.49499 | 28419 ft | 443 kts | 240° |
| 2026-04-30 14:23 | 32.56716 | 71.43507 | 28848 ft | 446 kts | 240° |
| 2026-04-30 14:23 | 32.53118 | 71.37530 | 29255 ft | 449 kts | 240° |
| 2026-04-30 14:24 | 32.49471 | 71.31483 | 29653 ft | 452 kts | 240° |
| 2026-04-30 14:24 | 32.47640 | 71.28449 | 29841 ft | 454 kts | 240° |
| 2026-04-30 14:25 | 32.43977 | 71.22403 | 30480 ft | 447 kts | 240° |
| 2026-04-30 14:25 | 32.40399 | 71.16498 | 31156 ft | 440 kts | 241° |
| 2026-04-30 14:26 | 32.36855 | 71.10641 | 31816 ft | 434 kts | 242° |
| 2026-04-30 14:26 | 32.35100 | 71.07749 | 32152 ft | 430 kts | 242° |
| 2026-04-30 14:26 | 32.31633 | 71.02042 | 32775 ft | 424 kts | 243° |
| 2026-04-30 14:27 | 32.29916 | 70.99217 | 33077 ft | 421 kts | 243° |
| 2026-04-30 14:27 | 32.28213 | 70.96417 | 33378 ft | 418 kts | 243° |
| 2026-04-30 14:27 | 32.26518 | 70.93633 | 33679 ft | 415 kts | 243° |
| 2026-04-30 14:28 | 32.23179 | 70.88154 | 33932 ft | 411 kts | 243° |
| 2026-04-30 14:28 | 32.21511 | 70.85421 | 33940 ft | 408 kts | 243° |
| 2026-04-30 14:28 | 32.18200 | 70.80000 | 33931 ft | 406 kts | 243° |
| 2026-04-30 14:29 | 32.12146 | 70.70094 | 33931 ft | 406 kts | 243° |
| 2026-04-30 14:31 | 32.03329 | 70.55744 | 33925 ft | 406 kts | 243° |
| 2026-04-30 14:31 | 31.98347 | 70.47663 | 33917 ft | 405 kts | 243° |
| 2026-04-30 14:32 | 31.93376 | 70.39604 | 33931 ft | 405 kts | 243° |
| 2026-04-30 14:33 | 31.90064 | 70.34250 | 33923 ft | 404 kts | 243° |
| 2026-04-30 14:33 | 31.85095 | 70.26245 | 33939 ft | 404 kts | 243° |
| 2026-04-30 14:34 | 31.81795 | 70.20924 | 33928 ft | 404 kts | 243° |
| 2026-04-30 14:34 | 31.78487 | 70.15583 | 33943 ft | 403 kts | 242° |
| 2026-04-30 14:35 | 31.73516 | 70.07581 | 33962 ft | 403 kts | 242° |
| 2026-04-30 14:36 | 31.70212 | 70.02293 | 33988 ft | 403 kts | 242° |
| 2026-04-30 14:36 | 31.66891 | 69.96988 | 33994 ft | 403 kts | 242° |
| 2026-04-30 14:37 | 31.63571 | 69.91679 | 34023 ft | 403 kts | 242° |
| 2026-04-30 14:37 | 31.60248 | 69.86370 | 34016 ft | 403 kts | 242° |
| 2026-04-30 14:38 | 31.56948 | 69.81091 | 34016 ft | 402 kts | 242° |
| 2026-04-30 14:38 | 31.53705 | 69.75750 | 34006 ft | 402 kts | 243° |
| 2026-04-30 14:39 | 31.50466 | 69.70370 | 34021 ft | 402 kts | 242° |
| 2026-04-30 14:39 | 31.47242 | 69.65059 | 34004 ft | 403 kts | 242° |
| 2026-04-30 14:40 | 31.42351 | 69.57040 | 34014 ft | 402 kts | 242° |
| 2026-04-30 14:40 | 31.39086 | 69.51702 | 33989 ft | 402 kts | 242° |
| 2026-04-30 14:41 | 31.35820 | 69.46390 | 33994 ft | 403 kts | 239° |
| 2026-04-30 14:41 | 31.32052 | 69.41461 | 33990 ft | 408 kts | 236° |
| 2026-04-30 14:42 | 31.28203 | 69.36556 | 33985 ft | 408 kts | 236° |
| 2026-04-30 14:42 | 31.24378 | 69.31707 | 33985 ft | 408 kts | 236° |
| 2026-04-30 14:43 | 31.20533 | 69.26816 | 33984 ft | 408 kts | 236° |
| 2026-04-30 14:43 | 31.17329 | 69.22743 | 33986 ft | 408 kts | 236° |
| 2026-04-30 14:44 | 31.12859 | 69.17066 | 33981 ft | 409 kts | 236° |
| 2026-04-30 14:44 | 31.09005 | 69.12182 | 33992 ft | 409 kts | 236° |
| 2026-04-30 14:45 | 31.05796 | 69.08127 | 33988 ft | 409 kts | 236° |
| 2026-04-30 14:45 | 31.01935 | 69.03248 | 33989 ft | 409 kts | 236° |
| 2026-04-30 14:46 | 30.98068 | 68.98359 | 34005 ft | 409 kts | 236° |
| 2026-04-30 14:46 | 30.94229 | 68.93513 | 34002 ft | 409 kts | 236° |
| 2026-04-30 14:47 | 30.90355 | 68.88641 | 34005 ft | 409 kts | 236° |
| 2026-04-30 14:47 | 30.86488 | 68.83792 | 34002 ft | 409 kts | 235° |
| 2026-04-30 14:48 | 30.82647 | 68.78974 | 34008 ft | 408 kts | 235° |
| 2026-04-30 14:48 | 30.78777 | 68.74112 | 33983 ft | 409 kts | 236° |
| 2026-04-30 14:49 | 30.74897 | 68.69246 | 33992 ft | 410 kts | 235° |
| 2026-04-30 14:49 | 30.71025 | 68.64411 | 33995 ft | 411 kts | 235° |
| 2026-04-30 14:50 | 30.65199 | 68.57132 | 34011 ft | 411 kts | 235° |
| 2026-04-30 14:51 | 30.59352 | 68.49839 | 34005 ft | 411 kts | 235° |
| 2026-04-30 14:52 | 30.53496 | 68.42557 | 34035 ft | 411 kts | 235° |
| 2026-04-30 14:52 | 30.47666 | 68.35313 | 34020 ft | 411 kts | 235° |
| 2026-04-30 14:53 | 30.41806 | 68.28053 | 34026 ft | 411 kts | 235° |
| 2026-04-30 14:54 | 30.34003 | 68.18393 | 34040 ft | 412 kts | 234° |
| 2026-04-30 14:55 | 30.28116 | 68.11129 | 34026 ft | 410 kts | 234° |
| 2026-04-30 14:56 | 30.20312 | 68.01521 | 34032 ft | 409 kts | 234° |
| 2026-04-30 14:57 | 30.14473 | 67.94341 | 33959 ft | 408 kts | 234° |
| 2026-04-30 14:58 | 30.06683 | 67.84785 | 33967 ft | 410 kts | 234° |
| 2026-04-30 14:58 | 30.00842 | 67.77529 | 33911 ft | 411 kts | 234° |
| 2026-04-30 15:00 | 29.91090 | 67.65480 | 33939 ft | 412 kts | 234° |
| 2026-04-30 15:01 | 29.83253 | 67.55839 | 33927 ft | 411 kts | 234° |
| 2026-04-30 15:01 | 29.77412 | 67.48652 | 33939 ft | 411 kts | 234° |
| 2026-04-30 15:02 | 29.73499 | 67.43848 | 33932 ft | 410 kts | 234° |
| 2026-04-30 15:03 | 29.63750 | 67.31854 | 33981 ft | 409 kts | 234° |
| 2026-04-30 15:04 | 29.54032 | 67.19935 | 34014 ft | 408 kts | 234° |
| 2026-04-30 15:06 | 29.44331 | 67.08078 | 34064 ft | 407 kts | 234° |
| 2026-04-30 15:07 | 29.36569 | 66.98604 | 34090 ft | 408 kts | 234° |
| 2026-04-30 15:08 | 29.28766 | 66.89118 | 34093 ft | 408 kts | 233° |
| 2026-04-30 15:09 | 29.19009 | 66.77266 | 34104 ft | 410 kts | 233° |
| 2026-04-30 15:10 | 29.11162 | 66.67791 | 34115 ft | 410 kts | 233° |
| 2026-04-30 15:11 | 28.99390 | 66.53570 | 34125 ft | 410 kts | 233° |
| 2026-04-30 15:13 | 28.89608 | 66.41722 | 34127 ft | 411 kts | 233° |
| 2026-04-30 15:14 | 28.75869 | 66.25184 | 34097 ft | 411 kts | 232° |
| 2026-04-30 15:17 | 28.58108 | 66.03901 | 34086 ft | 412 kts | 232° |
| 2026-04-30 15:19 | 28.42296 | 65.85027 | 33995 ft | 413 kts | 231° |
| 2026-04-30 17:39 | 22.50658 | 50.34751 | 34081 ft | 410 kts | 271° |
| 2026-04-30 17:42 | 22.52135 | 50.05050 | 34081 ft | 409 kts | 270° |
| 2026-04-30 17:43 | 22.52895 | 49.89667 | 34077 ft | 409 kts | 270° |
| 2026-04-30 17:44 | 22.53932 | 49.71255 | 34087 ft | 410 kts | 273° |
| 2026-04-30 17:47 | 22.56663 | 49.43688 | 34102 ft | 410 kts | 272° |
| 2026-04-30 17:48 | 22.58666 | 49.22233 | 34104 ft | 409 kts | 272° |
| 2026-04-30 17:49 | 22.59794 | 49.09961 | 33903 ft | 408 kts | 272° |
| 2026-04-30 17:50 | 22.60905 | 48.97796 | 33860 ft | 408 kts | 272° |
| 2026-04-30 17:52 | 22.62565 | 48.79399 | 33887 ft | 409 kts | 272° |
| 2026-04-30 17:54 | 22.65022 | 48.51880 | 33883 ft | 408 kts | 272° |
| 2026-04-30 17:56 | 22.67162 | 48.27305 | 33888 ft | 418 kts | 272° |
| 2026-04-30 17:57 | 22.67989 | 48.17730 | 33896 ft | 431 kts | 272° |
| 2026-04-30 17:58 | 22.68826 | 48.08045 | 33893 ft | 432 kts | 272° |
| 2026-04-30 18:00 | 22.70998 | 47.82125 | 33900 ft | 432 kts | 272° |
| 2026-04-30 18:01 | 22.72345 | 47.65907 | 33917 ft | 432 kts | 272° |
| 2026-04-30 18:02 | 22.73924 | 47.46538 | 33933 ft | 429 kts | 271° |
| 2026-04-30 18:04 | 22.75241 | 47.28374 | 33921 ft | 429 kts | 273° |
| 2026-04-30 18:06 | 22.77415 | 47.02635 | 33946 ft | 430 kts | 271° |
| 2026-04-30 18:08 | 22.79201 | 46.80119 | 33963 ft | 428 kts | 271° |
| 2026-04-30 18:10 | 22.81167 | 46.54481 | 33968 ft | 426 kts | 271° |
| 2026-04-30 18:11 | 22.82835 | 46.32164 | 33958 ft | 423 kts | 271° |
| 2026-04-30 18:13 | 22.84014 | 46.16258 | 33930 ft | 423 kts | 271° |
| 2026-04-30 18:14 | 22.85164 | 46.00331 | 33913 ft | 424 kts | 271° |
| 2026-04-30 18:15 | 22.86534 | 45.81217 | 33928 ft | 424 kts | 271° |
| 2026-04-30 18:16 | 22.87432 | 45.68496 | 33922 ft | 424 kts | 271° |
| 2026-04-30 18:17 | 22.87882 | 45.62107 | 33920 ft | 424 kts | 271° |
| 2026-04-30 18:18 | 22.88542 | 45.52527 | 33916 ft | 425 kts | 270° |
| 2026-04-30 18:18 | 22.88971 | 45.46129 | 33919 ft | 425 kts | 270° |
| 2026-04-30 18:19 | 22.89400 | 45.39724 | 33913 ft | 425 kts | 271° |
| 2026-04-30 18:19 | 22.89837 | 45.33359 | 33926 ft | 425 kts | 270° |
| 2026-04-30 18:20 | 22.90267 | 45.26958 | 33928 ft | 426 kts | 270° |
| 2026-04-30 18:20 | 22.90698 | 45.20559 | 33926 ft | 426 kts | 270° |
| 2026-04-30 18:21 | 22.91131 | 45.14154 | 33930 ft | 426 kts | 270° |
| 2026-04-30 18:21 | 22.91555 | 45.07734 | 33929 ft | 425 kts | 270° |
| 2026-04-30 18:22 | 22.91971 | 45.01329 | 33929 ft | 425 kts | 270° |
| 2026-04-30 18:22 | 22.92596 | 44.91770 | 33940 ft | 424 kts | 271° |
| 2026-04-30 18:23 | 22.93018 | 44.85381 | 33935 ft | 424 kts | 271° |
| 2026-04-30 18:23 | 22.93425 | 44.79027 | 33935 ft | 423 kts | 270° |
| 2026-04-30 18:24 | 22.94030 | 44.69469 | 33936 ft | 423 kts | 271° |
| 2026-04-30 18:25 | 22.95056 | 44.64248 | 33935 ft | 430 kts | 284° |
| 2026-04-30 18:25 | 22.98228 | 44.54018 | 33943 ft | 429 kts | 283° |
| 2026-04-30 18:26 | 23.00754 | 44.45817 | 33942 ft | 429 kts | 283° |
| 2026-04-30 18:27 | 23.03602 | 44.36586 | 33950 ft | 428 kts | 283° |
| 2026-04-30 18:28 | 23.06195 | 44.27347 | 33949 ft | 420 kts | 272° |
| 2026-04-30 18:28 | 23.06128 | 44.24238 | 33945 ft | 414 kts | 259° |
| 2026-04-30 18:28 | 23.05067 | 44.18085 | 33947 ft | 414 kts | 258° |
| 2026-04-30 18:29 | 23.02897 | 44.05800 | 33949 ft | 413 kts | 258° |
| 2026-04-30 18:30 | 23.00747 | 43.93574 | 33961 ft | 413 kts | 257° |
| 2026-04-30 18:31 | 22.99121 | 43.84375 | 33961 ft | 413 kts | 257° |
| 2026-04-30 18:32 | 22.97503 | 43.75226 | 33964 ft | 413 kts | 257° |
| 2026-04-30 18:33 | 22.95861 | 43.66030 | 33957 ft | 413 kts | 257° |
| 2026-04-30 18:33 | 22.94219 | 43.56822 | 33953 ft | 414 kts | 257° |
| 2026-04-30 18:34 | 22.92575 | 43.47620 | 33953 ft | 415 kts | 257° |
| 2026-04-30 18:35 | 22.91471 | 43.41460 | 33971 ft | 416 kts | 257° |
| 2026-04-30 18:35 | 22.90367 | 43.35293 | 33966 ft | 417 kts | 257° |
| 2026-04-30 18:36 | 22.88695 | 43.26071 | 33956 ft | 417 kts | 257° |
| 2026-04-30 18:37 | 22.87013 | 43.16803 | 33975 ft | 417 kts | 257° |
| 2026-04-30 18:37 | 22.85891 | 43.10626 | 33979 ft | 417 kts | 257° |
| 2026-04-30 18:38 | 22.84770 | 43.04489 | 33976 ft | 417 kts | 257° |
| 2026-04-30 18:38 | 22.83643 | 42.98318 | 33990 ft | 417 kts | 257° |
| 2026-04-30 18:39 | 22.82514 | 42.92154 | 33987 ft | 417 kts | 257° |
| 2026-04-30 18:39 | 22.81390 | 42.86028 | 33991 ft | 417 kts | 257° |
| 2026-04-30 18:40 | 22.80254 | 42.79868 | 33970 ft | 417 kts | 257° |
| 2026-04-30 18:40 | 22.79113 | 42.73699 | 33976 ft | 416 kts | 257° |
| 2026-04-30 18:41 | 22.77971 | 42.67539 | 33980 ft | 416 kts | 257° |
| 2026-04-30 18:41 | 22.76839 | 42.61396 | 33978 ft | 416 kts | 257° |
| 2026-04-30 18:42 | 22.75704 | 42.55280 | 33995 ft | 416 kts | 257° |
| 2026-04-30 18:42 | 22.73992 | 42.46061 | 33998 ft | 416 kts | 257° |
| 2026-04-30 18:45 | 22.67660 | 42.12371 | 33997 ft | 416 kts | 257° |
| 2026-04-30 18:46 | 22.66505 | 42.06217 | 34007 ft | 416 kts | 257° |
| 2026-04-30 18:46 | 22.65349 | 42.00102 | 34013 ft | 417 kts | 257° |
| 2026-04-30 18:47 | 22.64183 | 41.93946 | 34031 ft | 417 kts | 257° |
| 2026-04-30 18:47 | 22.63008 | 41.87789 | 34019 ft | 417 kts | 257° |
| 2026-04-30 18:48 | 22.61827 | 41.81639 | 34021 ft | 417 kts | 257° |
| 2026-04-30 18:48 | 22.60652 | 41.75484 | 34035 ft | 417 kts | 257° |
| 2026-04-30 18:49 | 22.59486 | 41.69367 | 34045 ft | 417 kts | 257° |
| 2026-04-30 18:49 | 22.58307 | 41.63221 | 34047 ft | 416 kts | 257° |
| 2026-04-30 18:50 | 22.57125 | 41.57081 | 34046 ft | 416 kts | 257° |
| 2026-04-30 18:50 | 22.55946 | 41.50946 | 34059 ft | 415 kts | 257° |
| 2026-04-30 18:51 | 22.54771 | 41.44869 | 34057 ft | 415 kts | 257° |
| 2026-04-30 18:51 | 22.53585 | 41.38747 | 34031 ft | 414 kts | 257° |
| 2026-04-30 18:52 | 22.52402 | 41.32643 | 34047 ft | 415 kts | 257° |
| 2026-04-30 18:52 | 22.51225 | 41.26572 | 34049 ft | 415 kts | 257° |
| 2026-04-30 18:53 | 22.50032 | 41.20455 | 34056 ft | 415 kts | 257° |
| 2026-04-30 18:53 | 22.48832 | 41.14343 | 34058 ft | 415 kts | 257° |
| 2026-04-30 18:54 | 22.47645 | 41.08272 | 34078 ft | 414 kts | 257° |
| 2026-04-30 18:54 | 22.46454 | 41.02164 | 34079 ft | 414 kts | 257° |
| 2026-04-30 18:55 | 22.45254 | 40.96084 | 34078 ft | 413 kts | 256° |
| 2026-04-30 18:55 | 22.43434 | 40.86948 | 34061 ft | 414 kts | 257° |
| 2026-04-30 18:56 | 22.41641 | 40.77852 | 34061 ft | 414 kts | 257° |
| 2026-04-30 18:57 | 22.39828 | 40.68713 | 34077 ft | 414 kts | 257° |
| 2026-04-30 18:57 | 22.38357 | 40.62765 | 34074 ft | 412 kts | 248° |
| 2026-04-30 18:58 | 22.35046 | 40.54160 | 34074 ft | 413 kts | 248° |
| 2026-04-30 18:59 | 22.31731 | 40.45543 | 34080 ft | 413 kts | 248° |
| 2026-04-30 19:00 | 22.27315 | 40.34125 | 34093 ft | 413 kts | 248° |
| 2026-04-30 19:01 | 22.22883 | 40.22703 | 34107 ft | 412 kts | 248° |
| 2026-04-30 19:02 | 22.19555 | 40.14138 | 34096 ft | 412 kts | 248° |
| 2026-04-30 19:03 | 22.15130 | 40.02761 | 34039 ft | 412 kts | 248° |
| 2026-04-30 19:04 | 22.10671 | 39.91349 | 34033 ft | 412 kts | 248° |
| 2026-04-30 19:05 | 22.06235 | 39.79998 | 34025 ft | 409 kts | 248° |
| 2026-04-30 19:05 | 22.04057 | 39.74452 | 33884 ft | 387 kts | 248° |
| 2026-04-30 19:06 | 22.02014 | 39.69267 | 32494 ft | 366 kts | 249° |
| 2026-04-30 19:06 | 22.01029 | 39.66755 | 31638 ft | 362 kts | 249° |
| 2026-04-30 19:06 | 21.99095 | 39.61819 | 29967 ft | 357 kts | 250° |
| 2026-04-30 19:07 | 21.97472 | 39.57684 | 28863 ft | 357 kts | 250° |
| 2026-04-30 19:07 | 21.96502 | 39.55229 | 28334 ft | 355 kts | 250° |
| 2026-04-30 19:08 | 21.94573 | 39.50354 | 27298 ft | 351 kts | 250° |
| 2026-04-30 19:08 | 21.92556 | 39.45574 | 26251 ft | 349 kts | 248° |
| 2026-04-30 19:08 | 21.91499 | 39.43228 | 25753 ft | 348 kts | 248° |
| 2026-04-30 19:09 | 21.89398 | 39.38610 | 24307 ft | 342 kts | 248° |
| 2026-04-30 19:09 | 21.88359 | 39.36310 | 23516 ft | 342 kts | 248° |
| 2026-04-30 19:09 | 21.87322 | 39.34002 | 22638 ft | 340 kts | 248° |
| 2026-04-30 19:10 | 21.85289 | 39.29458 | 21125 ft | 332 kts | 247° |
| 2026-04-30 19:10 | 21.83230 | 39.25061 | 19712 ft | 327 kts | 235° |
| 2026-04-30 19:11 | 21.81514 | 39.23492 | 19086 ft | 329 kts | 209° |
| 2026-04-30 19:11 | 21.76867 | 39.23342 | 16883 ft | 360 kts | 168° |
| 2026-04-30 19:11 | 21.74444 | 39.24192 | 15603 ft | 372 kts | 163° |
| 2026-04-30 19:12 | 21.72031 | 39.25234 | 14624 ft | 374 kts | 160° |
| 2026-04-30 19:12 | 21.69650 | 39.26326 | 13771 ft | 370 kts | 160° |
| 2026-04-30 19:12 | 21.67288 | 39.27393 | 12820 ft | 365 kts | 161° |
| 2026-04-30 19:13 | 21.62630 | 39.29349 | 10997 ft | 355 kts | 162° |
| 2026-04-30 19:13 | 21.58014 | 39.31154 | 8914 ft | 353 kts | 162° |
| 2026-04-30 19:13 | 21.55705 | 39.32045 | 7895 ft | 350 kts | 162° |
| 2026-04-30 19:14 | 21.53452 | 39.32915 | 6969 ft | 345 kts | 161° |
| 2026-04-30 19:14 | 21.51215 | 39.33782 | 6051 ft | 339 kts | 162° |
| 2026-04-30 19:14 | 21.49009 | 39.34641 | 5066 ft | 335 kts | 162° |
| 2026-04-30 19:14 | 21.46824 | 39.35495 | 4047 ft | 331 kts | 161° |
| 2026-04-30 19:15 | 21.44653 | 39.36345 | 3395 ft | 331 kts | 161° |
| 2026-04-30 19:15 | 21.40448 | 39.37996 | 3040 ft | 307 kts | 160° |
| 2026-04-30 19:15 | 21.38505 | 39.38762 | 3048 ft | 287 kts | 161° |
| 2026-04-30 19:16 | 21.36645 | 39.39116 | 3044 ft | 258 kts | 186° |
| 2026-04-30 19:16 | 21.35037 | 39.38590 | 3052 ft | 232 kts | 214° |
| 2026-04-30 19:16 | 21.33254 | 39.35943 | 3055 ft | 220 kts | 251° |
| 2026-04-30 19:17 | 21.32791 | 39.34380 | 3051 ft | 218 kts | 265° |
| 2026-04-30 19:17 | 21.33698 | 39.31363 | 3061 ft | 233 kts | 315° |
| 2026-04-30 19:17 | 21.35046 | 39.30472 | 3038 ft | 222 kts | 339° |
| 2026-04-30 19:18 | 21.37333 | 39.29583 | 3035 ft | 199 kts | 339° |
| 2026-04-30 19:18 | 21.38998 | 39.28931 | 3052 ft | 179 kts | 338° |
| 2026-04-30 19:18 | 21.40103 | 39.28497 | 3037 ft | 162 kts | 338° |
| 2026-04-30 19:19 | 21.41140 | 39.28090 | 3044 ft | 159 kts | 338° |
| 2026-04-30 19:19 | 21.42167 | 39.27686 | 3037 ft | 157 kts | 338° |
| 2026-04-30 19:19 | 21.44251 | 39.26866 | 3048 ft | 175 kts | 338° |
| 2026-04-30 19:20 | 21.45414 | 39.26409 | 3038 ft | 180 kts | 338° |
| 2026-04-30 19:20 | 21.46590 | 39.25947 | 3037 ft | 180 kts | 338° |
| 2026-04-30 19:20 | 21.48945 | 39.25022 | 3037 ft | 181 kts | 339° |
| 2026-04-30 19:21 | 21.50128 | 39.24557 | 3034 ft | 181 kts | 339° |
| 2026-04-30 19:21 | 21.52494 | 39.23627 | 2861 ft | 179 kts | 339° |
| 2026-04-30 19:22 | 21.54828 | 39.22708 | 2437 ft | 185 kts | 340° |
| 2026-04-30 19:22 | 21.58443 | 39.21285 | 1727 ft | 182 kts | 341° |
| 2026-04-30 19:23 | 21.61979 | 39.19893 | 1033 ft | 170 kts | 341° |
| 2026-04-30 19:24 | 21.64041 | 39.19077 | 629 ft | 146 kts | 340° |
| 2026-04-30 19:24 | 21.64961 | 39.18688 | 429 ft | 144 kts | 339° |
| 2026-04-30 19:24 | 21.66828 | 39.17964 | 94 ft | 137 kts | 341° |
| 2026-04-30 19:25 | 21.68590 | 39.17287 | 29 ft | 48 kts | 338° |
| 2026-04-30 19:26 | 21.68856 | 39.17123 | 29 ft | 19 kts | 310° |
| 2026-04-30 19:26 | 21.68912 | 39.17042 | 28 ft | 0 kts | 307° |
| 2026-04-30 19:27 | 21.68920 | 39.17031 | 30 ft | 8 kts | 304° |
| 2026-04-30 19:27 | 21.68756 | 39.16982 | 27 ft | 32 kts | 159° |
| 2026-04-30 19:28 | 21.68519 | 39.17085 | 27 ft | 37 kts | 160° |
| 2026-04-30 19:28 | 21.68145 | 39.17224 | 30 ft | 26 kts | 160° |
| 2026-04-30 19:29 | 21.67947 | 39.17301 | 31 ft | 4 kts | 165° |
| 2026-04-30 19:29 | 21.67923 | 39.17303 | 31 ft | 4 kts | 178° |
| 2026-04-30 19:30 | 21.67762 | 39.17277 | 30 ft | 15 kts | 159° |
| 2026-04-30 19:30 | 21.67511 | 39.17382 | 32 ft | 14 kts | 157° |
| 2026-04-30 19:31 | 21.67312 | 39.17455 | 33 ft | 15 kts | 165° |
| 2026-04-30 19:31 | 21.67203 | 39.17503 | 33 ft | 19 kts | 159° |
| 2026-04-30 19:31 | 21.66961 | 39.17556 | 33 ft | 11 kts | 229° |
| 2026-04-30 19:32 | 21.66929 | 39.17477 | 34 ft | 8 kts | 246° |
| 2026-04-30 19:32 | 21.66903 | 39.17409 | 34 ft | 12 kts | 249° |
| 2026-04-30 19:32 | 21.66878 | 39.17333 | 34 ft | 9 kts | 258° |
| 2026-04-30 19:32 | 21.66895 | 39.17264 | 34 ft | 11 kts | 269° |
| 2026-04-30 19:33 | 21.66871 | 39.17189 | 32 ft | 7 kts | 253° |
| 2026-04-30 19:33 | 21.66866 | 39.17172 | 34 ft | 1 kts | 252° |
| 2026-04-30 19:33 | 21.66865 | 39.17170 | 34 ft | 0 kts | 252° |